sensor_id;sensor_type;location;lat;lon;timestamp;P1;durP1;ratioP1;P2;durP2;ratioP2
1174;SDS011;576;48.418;10.074;2023-01-20T00:01:31;5.13;;;4.33;;
1174;SDS011;576;48.418;10.074;2023-01-20T00:03:59;4.70;;;4.40;;
1174;SDS011;576;48.418;10.074;2023-01-20T00:06:28;4.30;;;4.00;;
1174;SDS011;576;48.418;10.074;2023-01-20T00:08:57;5.23;;;4.73;;
1174;SDS011;576;48.418;10.074;2023-01-20T00:11:28;4.90;;;4.53;;
1174;SDS011;576;48.418;10.074;2023-01-20T00:13:58;5.43;;;4.93;;
1174;SDS011;576;48.418;10.074;2023-01-20T00:16:27;4.87;;;4.47;;
1174;SDS011;576;48.418;10.074;2023-01-20T00:18:57;4.20;;;3.80;;
1174;SDS011;576;48.418;10.074;2023-01-20T00:21:25;4.20;;;3.90;;
1174;SDS011;576;48.418;10.074;2023-01-20T00:23:54;4.87;;;4.47;;
1174;SDS011;576;48.418;10.074;2023-01-20T00:26:22;4.80;;;4.40;;
1174;SDS011;576;48.418;10.074;2023-01-20T00:28:53;4.50;;;4.00;;
1174;SDS011;576;48.418;10.074;2023-01-20T00:31:23;4.50;;;4.10;;
1174;SDS011;576;48.418;10.074;2023-01-20T00:33:53;4.13;;;3.83;;
1174;SDS011;576;48.418;10.074;2023-01-20T00:36:23;4.53;;;4.23;;
1174;SDS011;576;48.418;10.074;2023-01-20T00:38:52;5.30;;;4.73;;
1174;SDS011;576;48.418;10.074;2023-01-20T00:41:20;5.13;;;4.70;;
1174;SDS011;576;48.418;10.074;2023-01-20T00:43:48;4.17;;;3.87;;
1174;SDS011;576;48.418;10.074;2023-01-20T00:46:18;4.90;;;4.50;;
1174;SDS011;576;48.418;10.074;2023-01-20T00:48:48;4.37;;;4.07;;
1174;SDS011;576;48.418;10.074;2023-01-20T00:51:16;4.70;;;4.33;;
1174;SDS011;576;48.418;10.074;2023-01-20T00:53:44;4.80;;;4.37;;
1174;SDS011;576;48.418;10.074;2023-01-20T00:56:12;5.00;;;4.60;;
1174;SDS011;576;48.418;10.074;2023-01-20T00:58:41;4.80;;;4.47;;
1174;SDS011;576;48.418;10.074;2023-01-20T01:01:10;4.50;;;4.10;;
1174;SDS011;576;48.418;10.074;2023-01-20T01:03:40;5.30;;;4.87;;
1174;SDS011;576;48.418;10.074;2023-01-20T01:06:10;4.43;;;4.03;;
1174;SDS011;576;48.418;10.074;2023-01-20T01:08:39;4.13;;;3.73;;
1174;SDS011;576;48.418;10.074;2023-01-20T01:11:08;5.47;;;4.97;;
1174;SDS011;576;48.418;10.074;2023-01-20T01:13:36;5.20;;;4.30;;
1174;SDS011;576;48.418;10.074;2023-01-20T01:16:08;5.00;;;4.60;;
1174;SDS011;576;48.418;10.074;2023-01-20T01:18:38;4.40;;;4.00;;
1174;SDS011;576;48.418;10.074;2023-01-20T01:21:08;3.63;;;3.43;;
1174;SDS011;576;48.418;10.074;2023-01-20T01:23:39;4.60;;;4.20;;
1174;SDS011;576;48.418;10.074;2023-01-20T01:26:07;4.80;;;4.40;;
1174;SDS011;576;48.418;10.074;2023-01-20T01:28:35;4.37;;;4.07;;
1174;SDS011;576;48.418;10.074;2023-01-20T01:31:04;4.27;;;3.97;;
1174;SDS011;576;48.418;10.074;2023-01-20T01:33:34;4.53;;;4.13;;
1174;SDS011;576;48.418;10.074;2023-01-20T01:36:04;4.20;;;3.80;;
1174;SDS011;576;48.418;10.074;2023-01-20T01:38:33;4.10;;;3.80;;
1174;SDS011;576;48.418;10.074;2023-01-20T01:41:02;4.37;;;4.07;;
1174;SDS011;576;48.418;10.074;2023-01-20T01:43:31;3.70;;;3.40;;
1174;SDS011;576;48.418;10.074;2023-01-20T01:46:01;4.80;;;4.47;;
1174;SDS011;576;48.418;10.074;2023-01-20T01:48:31;4.20;;;3.90;;
1174;SDS011;576;48.418;10.074;2023-01-20T01:51:04;4.97;;;4.57;;
1174;SDS011;576;48.418;10.074;2023-01-20T01:53:38;4.00;;;3.60;;
1174;SDS011;576;48.418;10.074;2023-01-20T01:56:09;4.60;;;4.20;;
1174;SDS011;576;48.418;10.074;2023-01-20T01:58:39;4.60;;;3.60;;
1174;SDS011;576;48.418;10.074;2023-01-20T02:01:11;4.17;;;3.87;;
1174;SDS011;576;48.418;10.074;2023-01-20T02:03:41;3.73;;;3.43;;
1174;SDS011;576;48.418;10.074;2023-01-20T02:06:17;3.97;;;3.57;;
1174;SDS011;576;48.418;10.074;2023-01-20T02:08:46;4.13;;;3.83;;
1174;SDS011;576;48.418;10.074;2023-01-20T02:11:15;4.60;;;4.10;;
1174;SDS011;576;48.418;10.074;2023-01-20T02:13:43;3.97;;;3.67;;
1174;SDS011;576;48.418;10.074;2023-01-20T02:16:12;5.40;;;4.90;;
1174;SDS011;576;48.418;10.074;2023-01-20T02:18:49;4.43;;;4.03;;
1174;SDS011;576;48.418;10.074;2023-01-20T02:27:51;3.80;;;3.50;;
1174;SDS011;576;48.418;10.074;2023-01-20T02:30:50;3.87;;;3.50;;
1174;SDS011;576;48.418;10.074;2023-01-20T02:33:27;4.10;;;3.80;;
1174;SDS011;576;48.418;10.074;2023-01-20T02:35:59;3.53;;;3.23;;
1174;SDS011;576;48.418;10.074;2023-01-20T02:38:34;3.60;;;3.30;;
1174;SDS011;576;48.418;10.074;2023-01-20T02:41:10;4.00;;;3.60;;
1174;SDS011;576;48.418;10.074;2023-01-20T02:43:46;3.80;;;3.50;;
1174;SDS011;576;48.418;10.074;2023-01-20T02:46:21;3.83;;;3.53;;
1174;SDS011;576;48.418;10.074;2023-01-20T02:48:53;4.40;;;4.00;;
1174;SDS011;576;48.418;10.074;2023-01-20T02:51:31;4.10;;;3.70;;
1174;SDS011;576;48.418;10.074;2023-01-20T02:54:07;3.80;;;3.50;;
1174;SDS011;576;48.418;10.074;2023-01-20T02:56:39;4.23;;;3.83;;
1174;SDS011;576;48.418;10.074;2023-01-20T02:59:09;4.40;;;4.00;;
1174;SDS011;576;48.418;10.074;2023-01-20T03:01:40;3.73;;;3.43;;
1174;SDS011;576;48.418;10.074;2023-01-20T03:04:15;4.40;;;4.00;;
1174;SDS011;576;48.418;10.074;2023-01-20T03:06:49;3.43;;;3.10;;
1174;SDS011;576;48.418;10.074;2023-01-20T03:09:22;3.83;;;3.53;;
1174;SDS011;576;48.418;10.074;2023-01-20T03:11:55;3.80;;;3.50;;
1174;SDS011;576;48.418;10.074;2023-01-20T03:14:27;3.90;;;3.60;;
1174;SDS011;576;48.418;10.074;2023-01-20T03:16:55;4.00;;;3.70;;
1174;SDS011;576;48.418;10.074;2023-01-20T03:19:25;3.90;;;3.70;;
1174;SDS011;576;48.418;10.074;2023-01-20T03:21:53;3.03;;;2.83;;
1174;SDS011;576;48.418;10.074;2023-01-20T03:24:21;4.20;;;3.83;;
1174;SDS011;576;48.418;10.074;2023-01-20T03:26:52;3.60;;;3.40;;
1174;SDS011;576;48.418;10.074;2023-01-20T03:29:21;3.50;;;3.20;;
1174;SDS011;576;48.418;10.074;2023-01-20T03:31:49;3.30;;;3.10;;
1174;SDS011;576;48.418;10.074;2023-01-20T03:34:21;3.97;;;3.67;;
1174;SDS011;576;48.418;10.074;2023-01-20T03:36:53;3.70;;;3.40;;
1174;SDS011;576;48.418;10.074;2023-01-20T03:39:22;3.97;;;3.67;;
1174;SDS011;576;48.418;10.074;2023-01-20T03:41:54;4.50;;;4.10;;
1174;SDS011;576;48.418;10.074;2023-01-20T03:44:31;3.77;;;3.53;;
1174;SDS011;576;48.418;10.074;2023-01-20T03:47:09;4.50;;;4.10;;
1174;SDS011;576;48.418;10.074;2023-01-20T03:49:45;4.90;;;4.50;;
1174;SDS011;576;48.418;10.074;2023-01-20T03:52:21;3.83;;;3.43;;
1174;SDS011;576;48.418;10.074;2023-01-20T03:55:14;3.43;;;3.23;;
1174;SDS011;576;48.418;10.074;2023-01-20T03:57:48;4.27;;;3.63;;
1174;SDS011;576;48.418;10.074;2023-01-20T04:00:21;3.70;;;3.40;;
1174;SDS011;576;48.418;10.074;2023-01-20T04:02:55;4.13;;;3.73;;
1174;SDS011;576;48.418;10.074;2023-01-20T04:05:25;3.67;;;3.47;;
1174;SDS011;576;48.418;10.074;2023-01-20T04:07:56;4.10;;;3.57;;
1174;SDS011;576;48.418;10.074;2023-01-20T04:10:28;4.00;;;3.70;;
1174;SDS011;576;48.418;10.074;2023-01-20T04:12:59;3.97;;;3.67;;
1174;SDS011;576;48.418;10.074;2023-01-20T04:15:27;3.70;;;3.40;;
1174;SDS011;576;48.418;10.074;2023-01-20T04:18:08;3.30;;;3.00;;
1174;SDS011;576;48.418;10.074;2023-01-20T04:20:38;3.70;;;3.50;;
1174;SDS011;576;48.418;10.074;2023-01-20T04:23:08;3.77;;;3.47;;
1174;SDS011;576;48.418;10.074;2023-01-20T04:25:43;3.23;;;3.00;;
1174;SDS011;576;48.418;10.074;2023-01-20T04:28:12;3.00;;;2.80;;
1174;SDS011;576;48.418;10.074;2023-01-20T04:30:40;3.43;;;3.20;;
1174;SDS011;576;48.418;10.074;2023-01-20T04:33:08;3.30;;;3.00;;
1174;SDS011;576;48.418;10.074;2023-01-20T04:35:36;3.30;;;3.00;;
1174;SDS011;576;48.418;10.074;2023-01-20T04:38:04;3.87;;;3.27;;
1174;SDS011;576;48.418;10.074;2023-01-20T04:40:34;3.50;;;3.20;;
1174;SDS011;576;48.418;10.074;2023-01-20T04:43:02;3.33;;;3.03;;
1174;SDS011;576;48.418;10.074;2023-01-20T04:45:30;3.53;;;3.20;;
1174;SDS011;576;48.418;10.074;2023-01-20T04:47:58;3.43;;;3.13;;
1174;SDS011;576;48.418;10.074;2023-01-20T04:50:26;3.30;;;3.10;;
1174;SDS011;576;48.418;10.074;2023-01-20T04:52:55;3.23;;;3.03;;
1174;SDS011;576;48.418;10.074;2023-01-20T04:55:26;3.00;;;2.80;;
1174;SDS011;576;48.418;10.074;2023-01-20T04:57:55;3.53;;;3.23;;
1174;SDS011;576;48.418;10.074;2023-01-20T05:00:23;2.67;;;2.47;;
1174;SDS011;576;48.418;10.074;2023-01-20T05:02:51;3.13;;;2.93;;
1174;SDS011;576;48.418;10.074;2023-01-20T05:05:22;2.60;;;2.40;;
1174;SDS011;576;48.418;10.074;2023-01-20T05:07:51;3.20;;;3.00;;
1174;SDS011;576;48.418;10.074;2023-01-20T05:10:20;2.93;;;2.73;;
1174;SDS011;576;48.418;10.074;2023-01-20T05:12:48;3.00;;;2.80;;
1174;SDS011;576;48.418;10.074;2023-01-20T05:15:18;3.27;;;3.03;;
1174;SDS011;576;48.418;10.074;2023-01-20T05:17:46;3.17;;;2.97;;
1174;SDS011;576;48.418;10.074;2023-01-20T05:20:14;3.00;;;2.80;;
1174;SDS011;576;48.418;10.074;2023-01-20T05:22:44;3.27;;;3.00;;
1174;SDS011;576;48.418;10.074;2023-01-20T05:25:12;2.60;;;2.50;;
1174;SDS011;576;48.418;10.074;2023-01-20T05:27:41;2.70;;;2.50;;
1174;SDS011;576;48.418;10.074;2023-01-20T05:30:10;3.50;;;2.63;;
1174;SDS011;576;48.418;10.074;2023-01-20T05:32:40;2.93;;;2.70;;
1174;SDS011;576;48.418;10.074;2023-01-20T05:35:08;3.23;;;2.93;;
1174;SDS011;576;48.418;10.074;2023-01-20T05:37:37;2.60;;;2.43;;
1174;SDS011;576;48.418;10.074;2023-01-20T05:40:05;2.70;;;2.50;;
1174;SDS011;576;48.418;10.074;2023-01-20T05:42:34;3.47;;;3.17;;
1174;SDS011;576;48.418;10.074;2023-01-20T05:45:03;2.70;;;2.50;;
1174;SDS011;576;48.418;10.074;2023-01-20T05:47:32;2.93;;;2.60;;
1174;SDS011;576;48.418;10.074;2023-01-20T05:50:01;3.40;;;2.70;;
1174;SDS011;576;48.418;10.074;2023-01-20T05:52:30;2.83;;;2.63;;
1174;SDS011;576;48.418;10.074;2023-01-20T05:54:58;3.13;;;2.83;;
1174;SDS011;576;48.418;10.074;2023-01-20T05:57:26;2.70;;;2.50;;
1174;SDS011;576;48.418;10.074;2023-01-20T05:59:54;2.77;;;2.57;;
1174;SDS011;576;48.418;10.074;2023-01-20T06:02:22;3.67;;;2.80;;
1174;SDS011;576;48.418;10.074;2023-01-20T06:04:51;2.50;;;2.30;;
1174;SDS011;576;48.418;10.074;2023-01-20T06:07:22;2.80;;;2.60;;
1174;SDS011;576;48.418;10.074;2023-01-20T06:09:50;4.53;;;2.97;;
1174;SDS011;576;48.418;10.074;2023-01-20T06:12:19;3.90;;;3.20;;
1174;SDS011;576;48.418;10.074;2023-01-20T06:14:47;2.73;;;2.53;;
1174;SDS011;576;48.418;10.074;2023-01-20T06:17:15;3.50;;;3.20;;
1174;SDS011;576;48.418;10.074;2023-01-20T06:19:43;3.70;;;2.60;;
1174;SDS011;576;48.418;10.074;2023-01-20T06:22:12;3.23;;;3.03;;
1174;SDS011;576;48.418;10.074;2023-01-20T06:24:42;3.40;;;3.10;;
1174;SDS011;576;48.418;10.074;2023-01-20T06:27:10;4.63;;;2.80;;
1174;SDS011;576;48.418;10.074;2023-01-20T06:29:39;3.03;;;2.40;;
1174;SDS011;576;48.418;10.074;2023-01-20T06:32:07;2.80;;;2.60;;
1174;SDS011;576;48.418;10.074;2023-01-20T06:34:35;4.80;;;2.57;;
1174;SDS011;576;48.418;10.074;2023-01-20T06:37:03;2.57;;;2.37;;
1174;SDS011;576;48.418;10.074;2023-01-20T06:39:31;3.23;;;2.40;;
1174;SDS011;576;48.418;10.074;2023-01-20T06:42:01;2.87;;;2.40;;
1174;SDS011;576;48.418;10.074;2023-01-20T06:44:29;3.00;;;2.80;;
1174;SDS011;576;48.418;10.074;2023-01-20T06:46:59;2.30;;;2.10;;
1174;SDS011;576;48.418;10.074;2023-01-20T06:49:27;2.33;;;2.13;;
1174;SDS011;576;48.418;10.074;2023-01-20T06:51:55;2.77;;;2.53;;
1174;SDS011;576;48.418;10.074;2023-01-20T06:54:23;3.07;;;2.77;;
1174;SDS011;576;48.418;10.074;2023-01-20T06:56:52;2.63;;;2.40;;
1174;SDS011;576;48.418;10.074;2023-01-20T06:59:22;5.17;;;2.27;;
1174;SDS011;576;48.418;10.074;2023-01-20T07:01:50;2.70;;;2.47;;
1174;SDS011;576;48.418;10.074;2023-01-20T07:04:19;3.40;;;3.10;;
1174;SDS011;576;48.418;10.074;2023-01-20T07:06:47;3.67;;;2.50;;
1174;SDS011;576;48.418;10.074;2023-01-20T07:09:15;2.60;;;2.40;;
1174;SDS011;576;48.418;10.074;2023-01-20T07:11:43;2.83;;;2.60;;
1174;SDS011;576;48.418;10.074;2023-01-20T07:14:11;4.30;;;2.50;;
1174;SDS011;576;48.418;10.074;2023-01-20T07:16:41;4.33;;;3.20;;
1174;SDS011;576;48.418;10.074;2023-01-20T07:19:09;4.53;;;3.07;;
1174;SDS011;576;48.418;10.074;2023-01-20T07:21:38;3.93;;;3.50;;
1174;SDS011;576;48.418;10.074;2023-01-20T07:24:07;4.77;;;3.10;;
1174;SDS011;576;48.418;10.074;2023-01-20T07:26:36;3.50;;;3.20;;
1174;SDS011;576;48.418;10.074;2023-01-20T07:29:04;4.03;;;2.90;;
1174;SDS011;576;48.418;10.074;2023-01-20T07:31:32;3.80;;;2.90;;
1174;SDS011;576;48.418;10.074;2023-01-20T07:34:02;5.50;;;3.13;;
1174;SDS011;576;48.418;10.074;2023-01-20T07:36:30;6.67;;;3.20;;
1174;SDS011;576;48.418;10.074;2023-01-20T07:38:58;3.97;;;2.50;;
1174;SDS011;576;48.418;10.074;2023-01-20T07:41:26;4.40;;;3.23;;
1174;SDS011;576;48.418;10.074;2023-01-20T07:43:54;9.33;;;3.40;;
1174;SDS011;576;48.418;10.074;2023-01-20T07:46:23;6.27;;;3.60;;
1174;SDS011;576;48.418;10.074;2023-01-20T07:48:51;4.47;;;3.10;;
1174;SDS011;576;48.418;10.074;2023-01-20T07:51:20;3.93;;;3.00;;
1174;SDS011;576;48.418;10.074;2023-01-20T07:53:49;6.30;;;2.30;;
1174;SDS011;576;48.418;10.074;2023-01-20T07:56:18;3.77;;;2.93;;
1174;SDS011;576;48.418;10.074;2023-01-20T07:58:48;4.10;;;2.93;;
1174;SDS011;576;48.418;10.074;2023-01-20T08:01:17;5.20;;;3.20;;
1174;SDS011;576;48.418;10.074;2023-01-20T08:03:47;5.67;;;3.60;;
1174;SDS011;576;48.418;10.074;2023-01-20T08:06:16;3.53;;;3.23;;
1174;SDS011;576;48.418;10.074;2023-01-20T08:08:47;4.53;;;2.83;;
1174;SDS011;576;48.418;10.074;2023-01-20T08:11:17;3.77;;;2.63;;
1174;SDS011;576;48.418;10.074;2023-01-20T08:13:46;3.00;;;2.67;;
1174;SDS011;576;48.418;10.074;2023-01-20T08:16:16;3.40;;;2.67;;
1174;SDS011;576;48.418;10.074;2023-01-20T08:18:45;5.17;;;2.97;;
1174;SDS011;576;48.418;10.074;2023-01-20T08:21:17;3.30;;;2.37;;
1174;SDS011;576;48.418;10.074;2023-01-20T08:23:48;2.73;;;2.53;;
1174;SDS011;576;48.418;10.074;2023-01-20T08:26:16;3.27;;;2.57;;
1174;SDS011;576;48.418;10.074;2023-01-20T08:28:45;4.47;;;3.30;;
1174;SDS011;576;48.418;10.074;2023-01-20T08:31:15;2.90;;;2.53;;
1174;SDS011;576;48.418;10.074;2023-01-20T08:33:45;6.10;;;3.23;;
1174;SDS011;576;48.418;10.074;2023-01-20T08:36:14;3.03;;;2.77;;
1174;SDS011;576;48.418;10.074;2023-01-20T08:38:44;3.10;;;2.30;;
1174;SDS011;576;48.418;10.074;2023-01-20T08:41:15;2.93;;;2.57;;
1174;SDS011;576;48.418;10.074;2023-01-20T08:43:44;2.63;;;2.40;;
1174;SDS011;576;48.418;10.074;2023-01-20T08:46:13;2.60;;;2.40;;
1174;SDS011;576;48.418;10.074;2023-01-20T08:48:43;6.73;;;3.17;;
1174;SDS011;576;48.418;10.074;2023-01-20T08:51:12;6.87;;;3.13;;
1174;SDS011;576;48.418;10.074;2023-01-20T08:53:42;3.00;;;2.53;;
1174;SDS011;576;48.418;10.074;2023-01-20T08:56:11;3.07;;;2.63;;
1174;SDS011;576;48.418;10.074;2023-01-20T08:58:41;2.77;;;2.57;;
1174;SDS011;576;48.418;10.074;2023-01-20T09:01:10;1.90;;;1.80;;
1174;SDS011;576;48.418;10.074;2023-01-20T09:03:40;2.33;;;2.13;;
1174;SDS011;576;48.418;10.074;2023-01-20T09:06:24;3.17;;;2.73;;
1174;SDS011;576;48.418;10.074;2023-01-20T09:08:53;4.33;;;3.47;;
1174;SDS011;576;48.418;10.074;2023-01-20T09:11:22;2.40;;;2.20;;
1174;SDS011;576;48.418;10.074;2023-01-20T09:13:53;3.10;;;2.60;;
1174;SDS011;576;48.418;10.074;2023-01-20T09:16:22;3.07;;;2.77;;
1174;SDS011;576;48.418;10.074;2023-01-20T09:18:50;2.93;;;2.73;;
1174;SDS011;576;48.418;10.074;2023-01-20T09:21:18;3.30;;;2.87;;
1174;SDS011;576;48.418;10.074;2023-01-20T09:23:47;2.73;;;2.53;;
1174;SDS011;576;48.418;10.074;2023-01-20T09:26:15;3.80;;;2.90;;
1174;SDS011;576;48.418;10.074;2023-01-20T09:29:02;3.03;;;2.80;;
1174;SDS011;576;48.418;10.074;2023-01-20T09:31:35;2.40;;;2.30;;
1174;SDS011;576;48.418;10.074;2023-01-20T09:34:05;4.90;;;2.23;;
1174;SDS011;576;48.418;10.074;2023-01-20T09:36:33;4.53;;;2.70;;
1174;SDS011;576;48.418;10.074;2023-01-20T09:39:01;4.20;;;2.70;;
1174;SDS011;576;48.418;10.074;2023-01-20T09:41:47;3.90;;;2.43;;
1174;SDS011;576;48.418;10.074;2023-01-20T09:44:43;4.00;;;2.57;;
1174;SDS011;576;48.418;10.074;2023-01-20T09:47:17;3.70;;;3.10;;
1174;SDS011;576;48.418;10.074;2023-01-20T09:50:02;3.37;;;3.03;;
1174;SDS011;576;48.418;10.074;2023-01-20T09:53:17;2.57;;;2.37;;
1174;SDS011;576;48.418;10.074;2023-01-20T09:55:58;4.00;;;2.67;;
1174;SDS011;576;48.418;10.074;2023-01-20T09:58:34;3.23;;;2.80;;
1174;SDS011;576;48.418;10.074;2023-01-20T10:01:09;3.27;;;3.00;;
1174;SDS011;576;48.418;10.074;2023-01-20T10:03:45;3.37;;;2.80;;
1174;SDS011;576;48.418;10.074;2023-01-20T10:06:20;2.67;;;2.47;;
1174;SDS011;576;48.418;10.074;2023-01-20T10:08:53;3.00;;;2.63;;
1174;SDS011;576;48.418;10.074;2023-01-20T10:11:32;3.07;;;2.87;;
1174;SDS011;576;48.418;10.074;2023-01-20T10:14:06;3.63;;;2.87;;
1174;SDS011;576;48.418;10.074;2023-01-20T10:16:39;3.37;;;3.07;;
1174;SDS011;576;48.418;10.074;2023-01-20T10:19:12;3.15;;;2.95;;
1174;SDS011;576;48.418;10.074;2023-01-20T10:21:46;3.23;;;2.70;;
1174;SDS011;576;48.418;10.074;2023-01-20T10:24:19;2.60;;;2.50;;
1174;SDS011;576;48.418;10.074;2023-01-20T10:26:51;2.67;;;2.50;;
1174;SDS011;576;48.418;10.074;2023-01-20T10:29:25;2.50;;;2.30;;
1174;SDS011;576;48.418;10.074;2023-01-20T10:31:59;2.80;;;2.60;;
1174;SDS011;576;48.418;10.074;2023-01-20T10:34:31;3.50;;;3.20;;
1174;SDS011;576;48.418;10.074;2023-01-20T10:37:08;2.87;;;2.67;;
1174;SDS011;576;48.418;10.074;2023-01-20T10:39:40;2.60;;;2.40;;
1174;SDS011;576;48.418;10.074;2023-01-20T10:42:13;4.13;;;2.73;;
1174;SDS011;576;48.418;10.074;2023-01-20T10:44:43;9.13;;;3.40;;
1174;SDS011;576;48.418;10.074;2023-01-20T10:47:29;10.93;;;2.90;;
1174;SDS011;576;48.418;10.074;2023-01-20T10:50:22;4.33;;;3.07;;
1174;SDS011;576;48.418;10.074;2023-01-20T10:53:06;4.30;;;3.27;;
1174;SDS011;576;48.418;10.074;2023-01-20T10:55:53;2.90;;;2.70;;
1174;SDS011;576;48.418;10.074;2023-01-20T10:58:29;3.10;;;2.90;;
1174;SDS011;576;48.418;10.074;2023-01-20T11:01:00;3.10;;;2.50;;
1174;SDS011;576;48.418;10.074;2023-01-20T11:03:34;2.37;;;2.27;;
1174;SDS011;576;48.418;10.074;2023-01-20T11:06:06;2.90;;;2.20;;
1174;SDS011;576;48.418;10.074;2023-01-20T11:08:37;2.93;;;2.63;;
1174;SDS011;576;48.418;10.074;2023-01-20T11:11:08;3.03;;;2.83;;
1174;SDS011;576;48.418;10.074;2023-01-20T11:13:38;4.00;;;2.77;;
1174;SDS011;576;48.418;10.074;2023-01-20T11:16:10;2.77;;;2.50;;
1174;SDS011;576;48.418;10.074;2023-01-20T11:18:42;4.40;;;2.70;;
1174;SDS011;576;48.418;10.074;2023-01-20T11:21:21;2.80;;;2.50;;
1174;SDS011;576;48.418;10.074;2023-01-20T11:23:52;2.73;;;2.30;;
1174;SDS011;576;48.418;10.074;2023-01-20T11:26:23;2.90;;;2.70;;
1174;SDS011;576;48.418;10.074;2023-01-20T11:28:54;3.23;;;2.93;;
1174;SDS011;576;48.418;10.074;2023-01-20T11:31:37;2.77;;;2.57;;
1174;SDS011;576;48.418;10.074;2023-01-20T11:34:19;4.70;;;2.87;;
1174;SDS011;576;48.418;10.074;2023-01-20T11:37:11;3.03;;;2.60;;
1174;SDS011;576;48.418;10.074;2023-01-20T11:39:44;3.07;;;2.83;;
1174;SDS011;576;48.418;10.074;2023-01-20T11:42:25;3.10;;;2.80;;
1174;SDS011;576;48.418;10.074;2023-01-20T11:44:55;2.70;;;2.50;;
1174;SDS011;576;48.418;10.074;2023-01-20T11:47:44;3.00;;;2.47;;
1174;SDS011;576;48.418;10.074;2023-01-20T11:50:27;5.07;;;3.13;;
1174;SDS011;576;48.418;10.074;2023-01-20T11:53:11;4.40;;;2.80;;
1174;SDS011;576;48.418;10.074;2023-01-20T11:55:45;5.80;;;4.37;;
1174;SDS011;576;48.418;10.074;2023-01-20T11:58:18;5.00;;;4.50;;
1174;SDS011;576;48.418;10.074;2023-01-20T12:00:48;4.93;;;4.10;;
1174;SDS011;576;48.418;10.074;2023-01-20T12:06:31;6.23;;;5.00;;
1174;SDS011;576;48.418;10.074;2023-01-20T12:09:05;6.33;;;5.13;;
1174;SDS011;576;48.418;10.074;2023-01-20T12:11:37;6.10;;;4.77;;
1174;SDS011;576;48.418;10.074;2023-01-20T12:14:17;9.07;;;4.90;;
1174;SDS011;576;48.418;10.074;2023-01-20T12:16:59;7.30;;;4.77;;
1174;SDS011;576;48.418;10.074;2023-01-20T12:19:43;6.50;;;4.30;;
1174;SDS011;576;48.418;10.074;2023-01-20T12:22:24;4.87;;;4.37;;
1174;SDS011;576;48.418;10.074;2023-01-20T12:24:59;4.73;;;4.33;;
1174;SDS011;576;48.418;10.074;2023-01-20T12:27:41;10.47;;;3.87;;
1174;SDS011;576;48.418;10.074;2023-01-20T12:30:15;5.67;;;5.17;;
1174;SDS011;576;48.418;10.074;2023-01-20T12:33:02;4.70;;;4.30;;
1174;SDS011;576;48.418;10.074;2023-01-20T12:35:33;5.23;;;4.40;;
1174;SDS011;576;48.418;10.074;2023-01-20T12:38:11;6.33;;;4.87;;
1174;SDS011;576;48.418;10.074;2023-01-20T12:40:46;8.10;;;4.57;;
1174;SDS011;576;48.418;10.074;2023-01-20T12:43:28;8.40;;;4.00;;
1174;SDS011;576;48.418;10.074;2023-01-20T12:46:16;5.50;;;4.90;;
1174;SDS011;576;48.418;10.074;2023-01-20T12:49:10;6.90;;;4.73;;
1174;SDS011;576;48.418;10.074;2023-01-20T12:52:10;5.10;;;4.20;;
1174;SDS011;576;48.418;10.074;2023-01-20T12:55:11;4.33;;;4.03;;
1174;SDS011;576;48.418;10.074;2023-01-20T12:57:56;4.30;;;3.90;;
1174;SDS011;576;48.418;10.074;2023-01-20T13:00:41;5.17;;;4.30;;
1174;SDS011;576;48.418;10.074;2023-01-20T13:03:26;5.53;;;4.97;;
1174;SDS011;576;48.418;10.074;2023-01-20T13:06:09;6.83;;;4.57;;
1174;SDS011;576;48.418;10.074;2023-01-20T13:08:55;8.07;;;4.33;;
1174;SDS011;576;48.418;10.074;2023-01-20T13:11:38;5.40;;;4.30;;
1174;SDS011;576;48.418;10.074;2023-01-20T13:14:16;6.03;;;4.10;;
1174;SDS011;576;48.418;10.074;2023-01-20T13:16:48;4.10;;;3.80;;
1174;SDS011;576;48.418;10.074;2023-01-20T13:19:27;4.50;;;4.10;;
1174;SDS011;576;48.418;10.074;2023-01-20T13:21:57;5.47;;;4.50;;
1174;SDS011;576;48.418;10.074;2023-01-20T13:24:36;8.70;;;4.03;;
1174;SDS011;576;48.418;10.074;2023-01-20T13:27:09;5.93;;;3.90;;
1174;SDS011;576;48.418;10.074;2023-01-20T13:29:40;5.57;;;4.60;;
1174;SDS011;576;48.418;10.074;2023-01-20T13:32:28;7.77;;;4.20;;
1174;SDS011;576;48.418;10.074;2023-01-20T13:34:59;5.60;;;4.10;;
1174;SDS011;576;48.418;10.074;2023-01-20T13:37:29;5.33;;;3.87;;
1174;SDS011;576;48.418;10.074;2023-01-20T13:40:00;7.20;;;4.67;;
1174;SDS011;576;48.418;10.074;2023-01-20T13:42:45;6.00;;;4.00;;
1174;SDS011;576;48.418;10.074;2023-01-20T13:45:18;8.20;;;3.90;;
1174;SDS011;576;48.418;10.074;2023-01-20T13:47:55;5.90;;;4.30;;
1174;SDS011;576;48.418;10.074;2023-01-20T13:50:30;4.97;;;4.10;;
1174;SDS011;576;48.418;10.074;2023-01-20T13:58:59;5.93;;;4.17;;
1174;SDS011;576;48.418;10.074;2023-01-20T14:01:28;4.60;;;3.83;;
1174;SDS011;576;48.418;10.074;2023-01-20T14:04:00;4.80;;;4.40;;
1174;SDS011;576;48.418;10.074;2023-01-20T14:06:29;5.03;;;4.53;;
1174;SDS011;576;48.418;10.074;2023-01-20T14:08:59;4.03;;;3.40;;
1174;SDS011;576;48.418;10.074;2023-01-20T14:11:28;6.43;;;4.60;;
1174;SDS011;576;48.418;10.074;2023-01-20T14:13:57;4.20;;;3.60;;
1174;SDS011;576;48.418;10.074;2023-01-20T14:16:28;5.30;;;3.93;;
1174;SDS011;576;48.418;10.074;2023-01-20T14:19:04;5.83;;;4.10;;
1174;SDS011;576;48.418;10.074;2023-01-20T14:21:49;6.17;;;3.80;;
1174;SDS011;576;48.418;10.074;2023-01-20T14:24:26;4.73;;;3.90;;
1174;SDS011;576;48.418;10.074;2023-01-20T14:27:04;5.43;;;3.80;;
1174;SDS011;576;48.418;10.074;2023-01-20T14:29:34;3.80;;;3.50;;
1174;SDS011;576;48.418;10.074;2023-01-20T14:32:09;5.07;;;3.40;;
1174;SDS011;576;48.418;10.074;2023-01-20T14:34:47;9.23;;;3.97;;
1174;SDS011;576;48.418;10.074;2023-01-20T14:37:18;4.90;;;3.50;;
1174;SDS011;576;48.418;10.074;2023-01-20T14:39:51;3.97;;;3.67;;
1174;SDS011;576;48.418;10.074;2023-01-20T14:42:22;4.13;;;3.83;;
1174;SDS011;576;48.418;10.074;2023-01-20T14:44:53;3.60;;;3.30;;
1174;SDS011;576;48.418;10.074;2023-01-20T14:47:23;3.97;;;3.67;;
1174;SDS011;576;48.418;10.074;2023-01-20T14:49:52;3.87;;;3.57;;
1174;SDS011;576;48.418;10.074;2023-01-20T14:52:23;5.03;;;3.83;;
1174;SDS011;576;48.418;10.074;2023-01-20T14:54:55;4.43;;;3.50;;
1174;SDS011;576;48.418;10.074;2023-01-20T14:57:25;4.03;;;3.30;;
1174;SDS011;576;48.418;10.074;2023-01-20T15:02:51;3.93;;;3.53;;
1174;SDS011;576;48.418;10.074;2023-01-20T15:05:36;4.80;;;3.80;;
1174;SDS011;576;48.418;10.074;2023-01-20T15:08:18;4.50;;;3.37;;
1174;SDS011;576;48.418;10.074;2023-01-20T15:14:09;4.37;;;3.17;;
1174;SDS011;576;48.418;10.074;2023-01-20T15:16:42;5.20;;;3.17;;
1174;SDS011;576;48.418;10.074;2023-01-20T15:19:27;3.73;;;3.43;;
1174;SDS011;576;48.418;10.074;2023-01-20T15:22:15;3.60;;;3.00;;
1174;SDS011;576;48.418;10.074;2023-01-20T15:24:48;2.83;;;2.50;;
1174;SDS011;576;48.418;10.074;2023-01-20T15:27:21;4.00;;;3.70;;
1174;SDS011;576;48.418;10.074;2023-01-20T15:32:48;3.83;;;3.53;;
1174;SDS011;576;48.418;10.074;2023-01-20T15:35:18;3.23;;;3.03;;
1174;SDS011;576;48.418;10.074;2023-01-20T15:37:51;3.43;;;3.13;;
1174;SDS011;576;48.418;10.074;2023-01-20T15:40:20;3.20;;;3.00;;
1174;SDS011;576;48.418;10.074;2023-01-20T15:42:50;3.00;;;2.80;;
1174;SDS011;576;48.418;10.074;2023-01-20T15:45:20;3.67;;;3.37;;
1174;SDS011;576;48.418;10.074;2023-01-20T15:47:49;5.20;;;3.00;;
1174;SDS011;576;48.418;10.074;2023-01-20T15:50:20;3.43;;;3.13;;
1174;SDS011;576;48.418;10.074;2023-01-20T15:52:49;4.33;;;3.57;;
1174;SDS011;576;48.418;10.074;2023-01-20T15:55:17;3.10;;;2.80;;
1174;SDS011;576;48.418;10.074;2023-01-20T15:57:47;3.20;;;2.90;;
1174;SDS011;576;48.418;10.074;2023-01-20T16:00:18;3.77;;;3.47;;
1174;SDS011;576;48.418;10.074;2023-01-20T16:02:50;2.73;;;2.53;;
1174;SDS011;576;48.418;10.074;2023-01-20T16:05:18;3.43;;;3.13;;
1174;SDS011;576;48.418;10.074;2023-01-20T16:07:46;3.17;;;2.87;;
1174;SDS011;576;48.418;10.074;2023-01-20T16:10:15;3.00;;;2.80;;
1174;SDS011;576;48.418;10.074;2023-01-20T16:12:45;2.93;;;2.73;;